Time;durP1;ratioP1;P1;durP2;ratioP2;P2;SDS_P1;SDS_P2;PMS_P1;PMS_P2;Temp;Humidity;BMP_temperature;BMP_pressure;BME280_temperature;BME280_humidity;BME280_pressure;Samples;Min_cycle;Max_cycle;Signal;HPM_P1;HPM_P2
2023/01/12 00:02:08;;;;;;;13.90;4.50;;;23.10;53.70;;;;;;5065472;28;20578;-81
2023/01/12 00:04:36;;;;;;;11.63;4.30;;;23.10;53.70;;;;;;5071721;28;20219;-81
2023/01/12 00:07:05;;;;;;;11.07;3.73;;;23.10;53.50;;;;;;5071933;28;20696;-84
2023/01/12 00:09:33;;;;;;;12.83;3.73;;;23.10;54.00;;;;;;5070809;28;20214;-85
2023/01/12 00:12:02;;;;;;;11.47;4.20;;;23.10;53.70;;;;;;5071293;28;20310;-85
2023/01/12 00:14:29;;;;;;;10.33;3.87;;;23.10;53.70;;;;;;5071821;28;20210;-83
2023/01/12 00:16:56;;;;;;;10.30;3.60;;;23.10;53.70;;;;;;5071309;28;20203;-79
2023/01/12 00:19:23;;;;;;;11.57;3.97;;;23.10;53.50;;;;;;5071524;28;20257;-82
2023/01/12 00:21:58;;;;;;;18.23;5.13;;;23.10;53.40;;;;;;5070548;28;20199;-79
2023/01/12 00:24:26;;;;;;;13.03;4.87;;;23.10;53.70;;;;;;5070365;28;20242;-78
2023/01/12 00:26:58;;;;;;;11.47;3.97;;;23.10;53.50;;;;;;5071356;28;20200;-81
2023/01/12 00:29:26;;;;;;;11.87;4.23;;;23.10;53.70;;;;;;5071281;28;20769;-80
2023/01/12 00:31:54;;;;;;;11.47;3.70;;;23.10;53.70;;;;;;5071392;28;20293;-81
2023/01/12 00:34:21;;;;;;;11.67;4.17;;;23.10;54.20;;;;;;5071254;28;20245;-79
2023/01/12 00:36:55;;;;;;;7.90;2.90;;;23.10;53.80;;;;;;5070535;28;20614;-81
2023/01/12 00:39:22;;;;;;;11.37;4.10;;;23.10;53.80;;;;;;5071054;28;20209;-84
2023/01/12 00:47:19;;;;;;;9.87;3.47;;;23.10;53.40;;;;;;5071204;28;20253;-81
2023/01/12 00:49:46;;;;;;;10.13;3.67;;;23.10;53.60;;;;;;5071093;28;20311;-81
2023/01/12 00:52:15;;;;;;;12.03;3.80;;;23.10;53.70;;;;;;5070939;28;20210;-84
2023/01/12 00:54:42;;;;;;;19.80;6.27;;;23.10;53.40;;;;;;5067457;28;20285;-80
2023/01/12 00:57:12;;;;;;;13.73;4.10;;;23.10;53.60;;;;;;5065612;28;20203;-81
2023/01/12 00:59:40;;;;;;;11.17;3.30;;;23.10;53.50;;;;;;5070801;28;20205;-79
2023/01/12 01:02:07;;;;;;;14.80;3.97;;;23.10;53.60;;;;;;5070871;28;20231;-79
2023/01/12 01:04:34;;;;;;;12.97;4.07;;;23.10;53.50;;;;;;5070591;28;20290;-80
2023/01/12 01:07:02;;;;;;;11.40;3.27;;;23.10;53.70;;;;;;5067659;28;20206;-79
2023/01/12 01:09:30;;;;;;;14.93;4.80;;;23.10;53.70;;;;;;5070623;28;20260;-80
2023/01/12 01:11:57;;;;;;;12.30;4.40;;;23.10;53.50;;;;;;5069925;28;20210;-81
2023/01/12 01:14:25;;;;;;;11.73;3.70;;;23.10;53.50;;;;;;5069115;28;20227;-78
2023/01/12 01:16:53;;;;;;;10.60;3.40;;;23.10;53.40;;;;;;5070467;28;20727;-80
2023/01/12 01:19:20;;;;;;;11.70;4.27;;;23.10;53.30;;;;;;5070235;28;20334;-79
2023/01/12 01:21:47;;;;;;;12.50;4.17;;;23.10;53.50;;;;;;5069846;28;20203;-79
2023/01/12 01:24:15;;;;;;;14.73;3.63;;;23.10;53.60;;;;;;5070590;28;20291;-83
2023/01/12 01:26:42;;;;;;;12.90;4.17;;;23.10;53.40;;;;;;5070488;28;20227;-83
2023/01/12 01:29:09;;;;;;;11.40;4.17;;;23.10;54.10;;;;;;5069268;28;20204;-83
2023/01/12 01:31:39;;;;;;;7.93;2.97;;;23.10;53.50;;;;;;5070718;28;20228;-80
2023/01/12 01:34:07;;;;;;;11.50;3.57;;;23.10;53.40;;;;;;5070494;28;20218;-82
2023/01/12 01:36:34;;;;;;;11.57;3.57;;;23.10;53.60;;;;;;5069591;28;20207;-81
2023/01/12 01:39:01;;;;;;;8.33;2.87;;;23.10;53.70;;;;;;5069637;28;20204;-81
2023/01/12 01:41:30;;;;;;;12.20;3.90;;;23.10;53.40;;;;;;5067162;28;20913;-83
2023/01/12 01:43:59;;;;;;;12.40;3.63;;;23.10;53.30;;;;;;5069623;28;20282;-80
2023/01/12 01:46:40;;;;;;;11.77;3.80;;;23.10;53.40;;;;;;5069609;28;20581;-80
2023/01/12 01:49:25;;;;;;;16.03;5.03;;;23.10;53.30;;;;;;5068548;28;20204;-83
2023/01/12 01:51:54;;;;;;;18.77;5.53;;;23.10;53.10;;;;;;5049996;28;20238;-85
2023/01/12 01:54:22;;;;;;;12.73;4.17;;;23.10;53.40;;;;;;5050384;28;20221;-84
2023/01/12 01:56:52;;;;;;;11.43;3.90;;;23.10;53.50;;;;;;5050010;28;20617;-86
2023/01/12 01:59:22;;;;;;;13.20;4.00;;;23.10;53.70;;;;;;5050211;28;20212;-80
2023/01/12 02:01:49;;;;;;;11.30;3.90;;;23.10;53.60;;;;;;5059052;28;20200;-80
2023/01/12 02:04:18;;;;;;;10.70;3.53;;;23.10;53.50;;;;;;5068128;28;20204;-79
2023/01/12 02:06:45;;;;;;;16.40;4.47;;;23.10;53.70;;;;;;5068588;28;20234;-80
2023/01/12 02:09:18;;;;;;;12.40;3.53;;;23.10;53.50;;;;;;5069407;28;20250;-80
2023/01/12 02:17:30;;;;;;;9.83;3.57;;;23.10;53.50;;;;;;5069352;28;20605;-78
2023/01/12 02:20:25;;;;;;;12.37;4.13;;;23.10;53.40;;;;;;5068119;28;20647;-77
2023/01/12 02:23:13;;;;;;;9.47;3.50;;;23.10;53.50;;;;;;5068518;28;20203;-78
2023/01/12 02:26:22;;;;;;;9.93;3.43;;;23.10;53.40;;;;;;5064736;28;20313;-79
2023/01/12 02:29:20;;;;;;;11.63;3.70;;;23.10;53.10;;;;;;5019601;28;20667;-82
2023/01/12 02:31:59;;;;;;;12.50;4.20;;;23.10;53.20;;;;;;5067927;28;20204;-79
2023/01/12 02:34:35;;;;;;;11.40;3.53;;;23.10;53.30;;;;;;5068754;28;20201;-80
2023/01/12 02:37:12;;;;;;;12.87;3.77;;;23.10;53.60;;;;;;5067814;28;20195;-78
2023/01/12 02:39:44;;;;;;;11.70;3.93;;;23.10;53.50;;;;;;5069106;28;20203;-82
2023/01/12 02:45:12;;;;;;;10.60;3.53;;;23.10;53.40;;;;;;5067406;28;20213;-83
2023/01/12 02:47:47;;;;;;;10.17;3.77;;;23.10;53.50;;;;;;5067810;28;20577;-86
2023/01/12 02:50:19;;;;;;;12.57;3.60;;;23.10;53.70;;;;;;5069107;28;20205;-86
2023/01/12 02:52:51;;;;;;;14.43;3.93;;;23.10;53.50;;;;;;5069291;28;20674;-79
2023/01/12 02:55:19;;;;;;;13.63;3.50;;;23.10;53.60;;;;;;5069166;28;20199;-79
2023/01/12 02:57:46;;;;;;;9.17;3.17;;;23.10;53.70;;;;;;5067340;28;20291;-83
2023/01/12 03:00:16;;;;;;;18.67;5.50;;;23.10;53.80;;;;;;5067822;28;20727;-82
2023/01/12 03:02:45;;;;;;;12.97;4.13;;;23.10;53.80;;;;;;5051556;28;20290;-80
2023/01/12 03:05:12;;;;;;;11.20;3.40;;;23.10;53.80;;;;;;5049021;28;20288;-79
2023/01/12 03:07:45;;;;;;;14.00;3.93;;;23.10;53.70;;;;;;5058775;28;20206;-80
2023/01/12 03:10:20;;;;;;;12.03;3.50;;;23.10;53.50;;;;;;5068393;28;20222;-82
2023/01/12 03:12:50;;;;;;;10.63;3.40;;;23.10;53.50;;;;;;5068395;28;20709;-80
2023/01/12 03:15:19;;;;;;;9.63;3.40;;;23.10;53.60;;;;;;5068098;28;20199;-80
2023/01/12 03:17:54;;;;;;;11.27;3.73;;;23.10;53.50;;;;;;5066174;28;20214;-82
2023/01/12 03:20:26;;;;;;;9.17;3.37;;;23.10;53.70;;;;;;5053599;28;20233;-86
2023/01/12 03:22:58;;;;;;;11.60;3.60;;;23.10;53.60;;;;;;5052053;28;20683;-81
2023/01/12 03:25:28;;;;;;;11.17;3.37;;;23.10;53.40;;;;;;5068510;28;20207;-81
2023/01/12 03:27:58;;;;;;;12.03;4.10;;;23.10;53.60;;;;;;5068058;28;20195;-82
2023/01/12 03:30:30;;;;;;;12.47;4.00;;;23.10;53.70;;;;;;5067322;28;20676;-82
2023/01/12 03:32:59;;;;;;;14.50;4.60;;;23.00;53.60;;;;;;5067235;28;20198;-81
2023/01/12 03:35:28;;;;;;;10.87;3.50;;;23.10;53.70;;;;;;5068849;28;20270;-82
2023/01/12 03:38:01;;;;;;;11.73;3.43;;;23.10;53.60;;;;;;5058804;28;20305;-86
2023/01/12 03:40:32;;;;;;;13.70;3.73;;;23.10;53.70;;;;;;5072622;28;20201;-82
2023/01/12 03:43:04;;;;;;;10.73;3.67;;;23.10;53.40;;;;;;5072281;28;20219;-82
2023/01/12 03:45:36;;;;;;;9.23;3.40;;;23.10;53.60;;;;;;5072245;28;20298;-84
2023/01/12 03:48:10;;;;;;;9.03;3.30;;;23.10;53.40;;;;;;5071734;28;20198;-81
2023/01/12 03:50:41;;;;;;;9.13;2.97;;;23.10;53.30;;;;;;5072436;28;20285;-81
2023/01/12 03:53:10;;;;;;;8.60;3.23;;;23.10;53.50;;;;;;5072452;28;20203;-81
2023/01/12 03:55:39;;;;;;;15.60;5.03;;;23.10;53.80;;;;;;5070411;28;20206;-83
2023/01/12 03:58:06;;;;;;;8.83;2.80;;;23.10;53.70;;;;;;5072281;28;20210;-81
2023/01/12 04:00:33;;;;;;;8.77;3.10;;;23.00;53.60;;;;;;5072078;28;20617;-81
2023/01/12 04:03:09;;;;;;;9.47;3.20;;;23.10;53.50;;;;;;5071908;28;20615;-85
2023/01/12 04:05:36;;;;;;;9.90;3.07;;;23.00;53.20;;;;;;5072504;28;20205;-83
2023/01/12 04:08:05;;;;;;;10.57;3.13;;;23.00;53.50;;;;;;5072547;28;20201;-82
2023/01/12 04:10:32;;;;;;;8.77;3.30;;;23.00;54.00;;;;;;5071394;28;20699;-82
2023/01/12 04:12:58;;;;;;;9.50;3.00;;;23.10;53.60;;;;;;5070710;28;20223;-90
2023/01/12 04:15:25;;;;;;;7.93;2.70;;;23.10;54.10;;;;;;5070502;28;20226;-87
2023/01/12 04:17:52;;;;;;;11.27;3.43;;;23.10;53.60;;;;;;5070496;28;20203;-84
2023/01/12 04:20:21;;;;;;;8.93;3.13;;;23.00;53.30;;;;;;5071749;28;20222;-84
2023/01/12 04:22:47;;;;;;;12.30;3.43;;;23.10;53.30;;;;;;5071980;28;20210;-87
2023/01/12 04:25:15;;;;;;;12.27;3.90;;;23.00;53.70;;;;;;5071962;28;20200;-87
2023/01/12 04:27:46;;;;;;;8.20;2.73;;;23.00;53.70;;;;;;5071699;28;20279;-90
2023/01/12 04:30:14;;;;;;;8.73;3.23;;;23.00;53.30;;;;;;5070374;28;20199;-89
2023/01/12 04:32:42;;;;;;;10.80;3.30;;;23.10;53.50;;;;;;5069382;28;20209;-86
2023/01/12 04:35:10;;;;;;;8.90;2.93;;;23.00;53.60;;;;;;5069620;28;20291;-87
2023/01/12 04:37:39;;;;;;;6.93;2.50;;;23.00;53.60;;;;;;5070975;28;20207;-85
2023/01/12 04:40:07;;;;;;;7.90;2.83;;;23.00;53.40;;;;;;5071807;28;20215;-82
2023/01/12 04:45:19;;;;;;;7.87;2.70;;;23.00;53.40;;;;;;5070215;28;20218;-83
2023/01/12 04:47:46;;;;;;;11.60;3.40;;;23.00;53.60;;;;;;5070309;28;20334;-87
2023/01/12 04:50:13;;;;;;;9.43;2.77;;;23.00;53.50;;;;;;5071165;28;20242;-86
2023/01/12 04:52:41;;;;;;;8.50;3.10;;;23.00;53.50;;;;;;5071441;28;20677;-83
2023/01/12 04:55:09;;;;;;;9.40;3.37;;;23.00;53.50;;;;;;5071432;28;20212;-86
2023/01/12 04:57:36;;;;;;;7.77;2.73;;;23.00;53.50;;;;;;5071350;28;20199;-83
2023/01/12 05:00:04;;;;;;;11.80;3.40;;;23.00;53.60;;;;;;5071071;28;20199;-85
2023/01/12 05:02:31;;;;;;;7.53;2.40;;;23.00;53.60;;;;;;5063658;28;20286;-84
2023/01/12 05:04:58;;;;;;;9.77;3.23;;;22.90;53.50;;;;;;5062590;28;20249;-83
2023/01/12 05:07:25;;;;;;;7.03;2.53;;;23.00;53.60;;;;;;5071217;28;20215;-83
2023/01/12 05:12:38;;;;;;;8.80;3.13;;;22.90;53.40;;;;;;5070953;28;20349;-83
2023/01/12 05:15:06;;;;;;;7.47;2.70;;;23.00;53.60;;;;;;5071212;28;20312;-84
2023/01/12 05:17:33;;;;;;;7.57;2.50;;;23.00;53.40;;;;;;5070820;28;20213;-86
2023/01/12 05:20:00;;;;;;;7.73;2.80;;;23.00;53.50;;;;;;5070771;28;20935;-84
2023/01/12 05:22:27;;;;;;;7.53;2.77;;;23.00;53.50;;;;;;5070291;28;20241;-85
2023/01/12 05:24:55;;;;;;;8.00;2.70;;;23.00;53.40;;;;;;5071392;28;20257;-88
2023/01/12 05:27:22;;;;;;;11.27;3.47;;;23.00;53.30;;;;;;5069628;28;20225;-83
2023/01/12 05:29:51;;;;;;;8.73;2.87;;;22.90;53.50;;;;;;5070962;28;20638;-86
2023/01/12 05:32:18;;;;;;;11.23;3.70;;;22.90;53.30;;;;;;5067906;28;20288;-84
2023/01/12 05:34:45;;;;;;;6.93;2.63;;;22.90;53.50;;;;;;5068899;28;20202;-84
2023/01/12 05:37:12;;;;;;;9.17;3.33;;;22.90;53.50;;;;;;5070677;28;20199;-87
2023/01/12 05:39:39;;;;;;;9.27;3.07;;;22.90;53.60;;;;;;5068694;28;20298;-90
2023/01/12 05:44:51;;;;;;;8.13;2.83;;;22.90;53.50;;;;;;5070772;28;20215;-89
2023/01/12 05:47:18;;;;;;;9.13;2.90;;;23.00;53.70;;;;;;5069750;28;20322;-83
2023/01/12 05:49:45;;;;;;;8.57;2.93;;;22.90;53.50;;;;;;5068776;28;20249;-89
2023/01/12 05:52:12;;;;;;;9.63;2.87;;;22.90;53.40;;;;;;5070459;28;20250;-87
2023/01/12 05:54:42;;;;;;;6.87;2.67;;;23.00;53.50;;;;;;5070881;28;20243;-88
2023/01/12 05:57:10;;;;;;;7.03;2.50;;;22.90;53.40;;;;;;5069548;28;20283;-87
2023/01/12 05:59:37;;;;;;;5.60;2.03;;;22.90;53.40;;;;;;5068146;28;20295;-87
2023/01/12 06:02:04;;;;;;;9.97;3.50;;;22.90;53.50;;;;;;5066880;28;20282;-91
2023/01/12 06:04:33;;;;;;;8.00;2.87;;;22.90;53.50;;;;;;5070345;28;20201;-83
2023/01/12 06:07:00;;;;;;;8.30;3.00;;;22.90;53.50;;;;;;5067750;28;20229;-81
2023/01/12 06:09:27;;;;;;;7.10;2.40;;;23.00;53.60;;;;;;5068011;28;20291;-80
2023/01/12 06:14:40;;;;;;;6.70;2.37;;;23.00;53.60;;;;;;5068576;28;20217;-79
2023/01/12 06:17:07;;;;;;;9.20;2.67;;;22.90;53.50;;;;;;5069711;28;20291;-79
2023/01/12 06:19:34;;;;;;;9.30;3.13;;;23.00;53.60;;;;;;5066678;28;20230;-84
2023/01/12 06:22:03;;;;;;;8.63;2.73;;;23.00;53.70;;;;;;5068353;28;20204;-87
2023/01/12 06:24:31;;;;;;;7.90;2.60;;;23.00;53.50;;;;;;5069919;28;20212;-84
2023/01/12 06:26:59;;;;;;;6.03;2.13;;;23.00;53.60;;;;;;5071410;28;20219;-92
2023/01/12 06:29:27;;;;;;;7.23;2.43;;;23.00;53.70;;;;;;5069189;28;20242;-83
2023/01/12 06:31:55;;;;;;;6.73;2.50;;;23.00;53.60;;;;;;5069648;28;20730;-80
2023/01/12 06:34:22;;;;;;;6.60;2.53;;;23.00;53.60;;;;;;5070396;28;20249;-79
2023/01/12 06:36:49;;;;;;;9.50;3.13;;;23.00;53.70;;;;;;5070871;28;20296;-86
2023/01/12 06:39:16;;;;;;;6.70;2.27;;;23.00;53.90;;;;;;5069752;28;20291;-85
2023/01/12 06:44:29;;;;;;;13.30;4.13;;;23.00;53.60;;;;;;5069065;28;20198;-81
2023/01/12 06:46:57;;;;;;;6.53;2.23;;;23.00;54.30;;;;;;5069802;28;20229;-82
2023/01/12 06:49:24;;;;;;;9.53;2.97;;;23.00;53.70;;;;;;5066351;28;20204;-82
2023/01/12 06:51:51;;;;;;;7.80;2.47;;;23.00;53.80;;;;;;5069190;28;20200;-79
2023/01/12 06:54:18;;;;;;;7.50;2.50;;;23.00;53.70;;;;;;5069601;28;20289;-87
2023/01/12 06:56:45;;;;;;;7.00;2.53;;;23.00;53.90;;;;;;5070101;28;20215;-84
2023/01/12 06:59:12;;;;;;;8.57;2.90;;;23.10;54.60;;;;;;5069011;28;20725;-82
2023/01/12 07:01:39;;;;;;;9.17;2.87;;;23.00;54.00;;;;;;5068377;28;20293;-81
2023/01/12 07:04:08;;;;;;;6.90;2.37;;;23.10;54.10;;;;;;5069083;28;20210;-79
2023/01/12 07:06:35;;;;;;;9.33;2.90;;;23.10;54.00;;;;;;5069049;28;20250;-80
2023/01/12 07:09:02;;;;;;;8.47;3.00;;;23.10;54.00;;;;;;5067992;28;20204;-83
2023/01/12 07:11:29;;;;;;;7.27;2.40;;;23.00;53.90;;;;;;5066754;28;20229;-82
2023/01/12 07:13:57;;;;;;;16.83;5.03;;;23.10;53.80;;;;;;5067500;28;20294;-79
2023/01/12 07:16:24;;;;;;;9.53;2.80;;;23.10;54.10;;;;;;5068091;28;20199;-80
2023/01/12 07:18:51;;;;;;;6.37;2.33;;;23.10;54.10;;;;;;5069006;28;20207;-83
2023/01/12 07:21:20;;;;;;;7.60;2.73;;;23.10;54.00;;;;;;5066887;28;20290;-79
2023/01/12 07:23:49;;;;;;;7.70;2.47;;;23.10;53.80;;;;;;5068756;28;20204;-79
2023/01/12 07:26:15;;;;;;;7.93;2.57;;;23.10;54.00;;;;;;5069066;28;20272;-79
2023/01/12 07:28:42;;;;;;;8.07;2.53;;;23.10;54.00;;;;;;5067776;28;20243;-78
2023/01/12 07:31:09;;;;;;;10.70;3.23;;;23.10;53.90;;;;;;5065332;28;20190;-80
2023/01/12 07:33:37;;;;;;;8.47;2.83;;;23.10;53.90;;;;;;5067074;28;20274;-78
2023/01/12 07:36:04;;;;;;;9.77;3.30;;;23.10;53.80;;;;;;5068571;28;20203;-76
2023/01/12 07:38:33;;;;;;;7.53;2.37;;;23.10;53.80;;;;;;5068549;28;20205;-76
2023/01/12 07:41:01;;;;;;;7.27;2.67;;;23.10;54.00;;;;;;5068799;28;20210;-77
2023/01/12 07:43:27;;;;;;;10.97;3.07;;;23.10;53.80;;;;;;5068198;28;20233;-76
2023/01/12 07:45:56;;;;;;;8.87;3.00;;;23.10;53.80;;;;;;5067706;28;20626;-76
2023/01/12 07:48:23;;;;;;;8.37;2.77;;;23.10;53.70;;;;;;5068496;28;20219;-76
2023/01/12 07:50:51;;;;;;;9.03;3.17;;;23.10;53.80;;;;;;5067540;28;20199;-76
2023/01/12 07:53:19;;;;;;;6.53;2.30;;;23.10;53.70;;;;;;5066947;28;20203;-76
2023/01/12 07:55:47;;;;;;;9.03;2.87;;;23.10;53.80;;;;;;5068513;28;20195;-76
2023/01/12 07:58:14;;;;;;;7.20;2.53;;;23.10;53.80;;;;;;5068503;28;20220;-76
2023/01/12 08:00:41;;;;;;;9.63;3.03;;;23.10;53.80;;;;;;5067297;28;20208;-76
2023/01/12 08:03:11;;;;;;;6.90;2.30;;;23.10;53.70;;;;;;5066127;28;20200;-77
2023/01/12 08:05:39;;;;;;;6.67;2.43;;;23.10;53.80;;;;;;5067719;28;20233;-76
2023/01/12 08:08:07;;;;;;;10.67;3.37;;;23.10;53.70;;;;;;5064824;28;20241;-78
2023/01/12 08:10:34;;;;;;;7.07;2.53;;;23.10;53.70;;;;;;5066738;28;20223;-77
2023/01/12 08:13:02;;;;;;;8.47;2.57;;;23.20;53.80;;;;;;5067769;28;20281;-66
2023/01/12 08:15:33;;;;;;;12.77;3.70;;;23.10;54.00;;;;;;5066401;28;20196;-74
2023/01/12 08:18:04;;;;;;;11.20;3.43;;;23.10;54.00;;;;;;5057092;28;20202;-74
2023/01/12 08:20:34;;;;;;;10.67;3.23;;;23.10;54.10;;;;;;5067930;28;20663;-75
2023/01/12 08:23:08;;;;;;;9.53;3.20;;;23.20;54.30;;;;;;5068208;28;20200;-73
2023/01/12 08:25:43;;;;;;;6.93;2.07;;;23.10;53.90;;;;;;5063545;28;20208;-81
2023/01/12 08:28:16;;;;;;;8.33;2.83;;;23.10;54.10;;;;;;5051715;28;20311;-78
2023/01/12 08:30:45;;;;;;;6.77;2.70;;;23.20;54.10;;;;;;5066476;28;20206;-76
2023/01/12 08:33:12;;;;;;;7.47;2.67;;;23.20;54.00;;;;;;5071899;28;20281;-75
2023/01/12 08:35:39;;;;;;;6.80;2.60;;;23.10;53.90;;;;;;5071733;28;20208;-74
2023/01/12 08:38:06;;;;;;;7.37;2.70;;;23.10;53.90;;;;;;5072097;28;20305;-73
2023/01/12 08:44:00;;;;;;;6.47;2.50;;;23.20;53.90;;;;;;5057439;28;20214;-74
2023/01/12 08:46:06;;;;;;;8.17;2.83;;;23.20;53.80;;;;;;5066715;28;20214;-73
2023/01/12 08:48:34;;;;;;;9.27;3.20;;;23.20;54.00;;;;;;5070963;28;20615;-73
2023/01/12 08:51:01;;;;;;;7.73;2.63;;;23.20;53.80;;;;;;5071165;28;20209;-74
2023/01/12 08:53:28;;;;;;;7.27;2.43;;;23.20;53.80;;;;;;5071384;28;20208;-74
2023/01/12 08:55:55;;;;;;;7.73;2.80;;;23.10;53.80;;;;;;5071837;28;20200;-75
2023/01/12 08:58:23;;;;;;;6.80;2.57;;;23.10;53.90;;;;;;5071209;28;20682;-79
2023/01/12 09:00:50;;;;;;;6.87;2.67;;;23.10;53.70;;;;;;5069176;28;20199;-77
2023/01/12 09:03:17;;;;;;;7.50;3.17;;;23.10;53.80;;;;;;5071155;28;20206;-76
2023/01/12 09:05:44;;;;;;;6.57;2.57;;;23.10;53.80;;;;;;5069195;28;20203;-77
2023/01/12 09:08:11;;;;;;;7.73;3.00;;;23.10;54.30;;;;;;5071163;28;20322;-83
2023/01/12 09:10:38;;;;;;;6.50;2.47;;;23.10;53.80;;;;;;5070880;28;20236;-80
2023/01/12 09:13:05;;;;;;;7.17;2.40;;;23.10;53.80;;;;;;5070824;28;20715;-83
2023/01/12 09:15:33;;;;;;;5.63;2.33;;;23.10;53.80;;;;;;5069818;28;20322;-74
2023/01/12 09:18:00;;;;;;;10.20;3.23;;;23.10;53.80;;;;;;5069644;28;20293;-74
2023/01/12 09:20:27;;;;;;;8.07;2.90;;;23.10;54.00;;;;;;5070376;28;20302;-80
2023/01/12 09:22:54;;;;;;;6.53;2.43;;;23.10;53.90;;;;;;5070743;28;20231;-78
2023/01/12 09:25:21;;;;;;;7.40;2.77;;;23.10;54.00;;;;;;5071038;28;20300;-80
2023/01/12 09:27:48;;;;;;;7.33;2.83;;;23.10;53.90;;;;;;5070695;28;20241;-75
2023/01/12 09:30:15;;;;;;;8.43;2.90;;;23.10;54.00;;;;;;5071056;28;20209;-77
2023/01/12 09:32:44;;;;;;;9.80;3.43;;;23.10;53.90;;;;;;5067692;28;21057;-77
2023/01/12 09:35:11;;;;;;;9.43;2.97;;;23.10;54.00;;;;;;5066367;28;20295;-75
2023/01/12 09:37:39;;;;;;;11.27;3.80;;;23.10;53.90;;;;;;5050636;28;20212;-82
2023/01/12 09:40:07;;;;;;;6.57;2.40;;;23.10;54.00;;;;;;5070466;28;20199;-74
2023/01/12 09:48:10;;;;;;;15.57;4.80;;;23.10;54.00;;;;;;5067374;28;20230;-75
2023/01/12 09:50:41;;;;;;;7.30;2.60;;;23.10;54.00;;;;;;5069507;28;20218;-73
2023/01/12 09:53:17;;;;;;;5.30;1.97;;;23.10;54.10;;;;;;5070631;28;20214;-78
2023/01/12 09:55:56;;;;;;;7.73;2.87;;;23.10;54.10;;;;;;5070401;28;20201;-80
2023/01/12 09:58:38;;;;;;;8.50;2.67;;;23.10;53.90;;;;;;5068609;28;20214;-85
2023/01/12 10:01:10;;;;;;;6.70;2.57;;;23.10;53.90;;;;;;5050024;28;20258;-78
2023/01/12 10:03:42;;;;;;;5.50;2.00;;;23.10;54.00;;;;;;5054140;28;20231;-86
2023/01/12 10:06:15;;;;;;;6.77;2.27;;;23.10;53.90;;;;;;5069389;28;20310;-77
2023/01/12 10:08:45;;;;;;;6.87;2.40;;;23.10;54.00;;;;;;5068652;28;20224;-76
2023/01/12 10:11:17;;;;;;;8.00;2.77;;;23.10;54.00;;;;;;5069659;28;20208;-73
2023/01/12 10:14:23;;;;;;;7.30;2.53;;;23.10;54.60;;;;;;5070101;28;20294;-74
2023/01/12 10:17:16;;;;;;;9.73;3.30;;;23.00;53.70;;;;;;5063795;28;20815;-74
2023/01/12 10:19:50;;;;;;;9.13;2.57;;;23.00;53.80;;;;;;5049679;28;20208;-74
2023/01/12 10:22:35;;;;;;;7.90;2.63;;;23.10;54.10;;;;;;5060718;28;20226;-73
2023/01/12 10:25:12;;;;;;;5.27;2.20;;;23.00;54.00;;;;;;5073371;28;20976;-74
2023/01/12 10:27:43;;;;;;;9.20;3.20;;;23.00;54.00;;;;;;5074952;28;20199;-75
2023/01/12 10:30:15;;;;;;;6.93;2.30;;;23.10;54.20;;;;;;5089945;28;20214;-75
2023/01/12 10:32:42;;;;;;;7.70;2.67;;;23.00;54.10;;;;;;5076462;28;20210;-74
2023/01/12 10:35:16;;;;;;;8.37;2.83;;;23.00;54.70;;;;;;5065384;28;20433;-73
2023/01/12 10:37:48;;;;;;;7.20;2.70;;;23.00;54.00;;;;;;5069174;28;20808;-75
2023/01/12 10:40:30;;;;;;;6.17;2.30;;;23.00;54.10;;;;;;5069496;28;20203;-74
2023/01/12 10:43:20;;;;;;;6.63;2.53;;;23.00;53.90;;;;;;5066296;28;20636;-74
2023/01/12 10:46:03;;;;;;;7.77;2.77;;;23.00;54.10;;;;;;5068322;28;20199;-73
2023/01/12 10:48:30;;;;;;;7.17;2.50;;;23.00;54.00;;;;;;5068958;28;20223;-74
2023/01/12 10:51:01;;;;;;;5.70;2.00;;;23.00;54.20;;;;;;5081542;28;20289;-73
2023/01/12 10:53:35;;;;;;;7.07;2.30;;;23.00;54.10;;;;;;5075087;28;20209;-73
2023/01/12 10:56:12;;;;;;;6.97;2.30;;;23.00;54.20;;;;;;5068874;28;20279;-79
2023/01/12 10:58:41;;;;;;;8.17;2.67;;;23.00;54.10;;;;;;5068094;28;20205;-73
2023/01/12 11:01:12;;;;;;;7.10;2.47;;;23.00;54.20;;;;;;5055756;28;20202;-74
2023/01/12 11:03:40;;;;;;;8.00;2.70;;;23.00;54.20;;;;;;5049107;28;20296;-73
2023/01/12 11:06:25;;;;;;;7.50;2.67;;;22.90;54.10;;;;;;5065194;28;20207;-73
2023/01/12 11:08:53;;;;;;;5.90;2.20;;;23.00;54.50;;;;;;5062611;28;20686;-71
2023/01/12 11:11:26;;;;;;;8.67;2.77;;;22.90;54.30;;;;;;5067643;28;20671;-71
2023/01/12 11:13:56;;;;;;;9.13;2.87;;;23.00;54.50;;;;;;5068982;28;20209;-71
2023/01/12 11:16:25;;;;;;;7.63;2.37;;;23.00;54.40;;;;;;5061883;28;20235;-73
2023/01/12 11:19:04;;;;;;;11.93;3.67;;;23.00;54.50;;;;;;5048348;28;20204;-73
2023/01/12 11:21:36;;;;;;;8.67;3.03;;;23.00;54.50;;;;;;5048890;28;20214;-71
2023/01/12 11:24:12;;;;;;;6.83;2.23;;;23.00;54.40;;;;;;5048852;28;20208;-72
2023/01/12 11:26:46;;;;;;;10.53;2.20;;;23.00;54.70;;;;;;5054959;28;20302;-71
2023/01/12 11:29:38;;;;;;;14.43;4.20;;;23.00;54.70;;;;;;5062608;28;20234;-71
2023/01/12 11:32:10;;;;;;;11.63;3.73;;;23.00;54.50;;;;;;5062482;28;20885;-73
2023/01/12 11:34:43;;;;;;;9.30;2.70;;;23.10;54.70;;;;;;5065217;28;20329;-77
2023/01/12 11:37:14;;;;;;;9.37;3.20;;;23.10;54.60;;;;;;5067033;28;20666;-73
2023/01/12 11:39:44;;;;;;;7.80;2.70;;;23.10;54.60;;;;;;5073999;28;20215;-79
2023/01/12 11:45:09;;;;;;;8.83;3.30;;;23.10;54.60;;;;;;5068480;28;20842;-80
2023/01/12 11:47:39;;;;;;;7.43;2.50;;;23.10;54.50;;;;;;5066891;28;20187;-79
2023/01/12 11:50:14;;;;;;;10.07;3.07;;;23.10;54.60;;;;;;5067686;28;20320;-77
2023/01/12 11:52:43;;;;;;;5.63;2.10;;;23.10;54.60;;;;;;5068681;28;20278;-72
2023/01/12 11:55:15;;;;;;;7.33;2.57;;;23.10;54.60;;;;;;5068918;28;20664;-79
2023/01/12 11:58:02;;;;;;;15.43;4.70;;;23.10;54.70;;;;;;5066260;28;20715;-85
2023/01/12 12:00:45;;;;;;;8.33;2.90;;;23.10;54.40;;;;;;5070463;28;20290;-86
2023/01/12 12:03:45;;;;;;;11.70;3.93;;;23.10;54.60;;;;;;5078710;28;20228;-85
2023/01/12 12:06:31;;;;;;;8.27;2.73;;;23.10;54.30;;;;;;5061880;28;20220;-80
2023/01/12 12:09:10;;;;;;;9.47;2.77;;;23.20;54.30;;;;;;5066264;28;20314;-82
2023/01/12 12:11:45;;;;;;;11.63;3.70;;;23.20;54.90;;;;;;5060076;28;20200;-80
2023/01/12 12:14:27;;;;;;;15.00;4.40;;;23.20;54.50;;;;;;5070363;28;20233;-80
2023/01/12 12:17:04;;;;;;;14.50;4.47;;;23.20;54.40;;;;;;5069678;28;20578;-80
2023/01/12 12:19:44;;;;;;;7.30;2.53;;;23.20;54.30;;;;;;5070458;28;20663;-76
2023/01/12 12:22:27;;;;;;;17.20;5.23;;;23.20;54.50;;;;;;5062767;28;20205;-72
2023/01/12 12:25:09;;;;;;;13.00;3.60;;;23.30;54.50;;;;;;5061705;28;20315;-75
2023/01/12 12:27:49;;;;;;;7.37;2.43;;;23.30;54.50;;;;;;5067813;28;20219;-77
2023/01/12 12:30:43;;;;;;;12.27;4.00;;;23.30;54.30;;;;;;5066357;28;20599;-73
2023/01/12 12:33:19;;;;;;;14.63;4.50;;;23.20;54.40;;;;;;5061688;28;20884;-75
2023/01/12 12:36:05;;;;;;;10.80;2.63;;;23.20;54.60;;;;;;5067947;28;20199;-70
2023/01/12 12:38:48;;;;;;;8.23;2.80;;;23.30;54.60;;;;;;5070382;28;20198;-72
2023/01/12 12:47:44;;;;;;;5.90;2.30;;;23.20;54.60;;;;;;5061354;28;20336;-73
2023/01/12 12:50:20;;;;;;;6.03;2.27;;;23.20;54.30;;;;;;5066646;28;20222;-87
2023/01/12 12:52:50;;;;;;;10.23;3.27;;;23.20;54.50;;;;;;5067745;28;20286;-72
2023/01/12 12:55:17;;;;;;;11.43;3.77;;;23.20;54.50;;;;;;5064786;28;20188;-81
2023/01/12 12:58:04;;;;;;;16.47;4.60;;;23.10;54.40;;;;;;5057606;28;20206;-82
2023/01/12 13:00:39;;;;;;;13.17;4.03;;;23.10;54.40;;;;;;5061293;28;20231;-73
2023/01/12 13:03:07;;;;;;;13.73;4.13;;;23.10;54.60;;;;;;5060814;28;20202;-70
2023/01/12 13:05:43;;;;;;;14.57;4.33;;;23.10;54.70;;;;;;5061215;28;20387;-76
2023/01/12 13:08:20;;;;;;;11.93;3.80;;;23.10;54.40;;;;;;5066645;28;20409;-73
2023/01/12 13:10:55;;;;;;;7.60;2.50;;;23.10;54.30;;;;;;5064095;28;20209;-70
2023/01/12 13:13:31;;;;;;;9.53;2.57;;;23.10;54.30;;;;;;5066490;28;20290;-71
2023/01/12 13:16:44;;;;;;;11.53;3.67;;;23.10;54.30;;;;;;5063728;28;20212;-75
2023/01/12 13:19:29;;;;;;;16.40;4.70;;;23.00;54.20;;;;;;5060443;28;20299;-74
2023/01/12 13:21:58;;;;;;;16.07;4.73;;;23.10;54.50;;;;;;5058296;28;20233;-70
2023/01/12 13:24:28;;;;;;;8.83;2.73;;;23.10;54.60;;;;;;5062455;28;20294;-70
2023/01/12 13:26:59;;;;;;;13.63;3.63;;;23.00;54.40;;;;;;5065719;28;20227;-70
2023/01/12 13:29:48;;;;;;;12.73;4.00;;;23.00;54.50;;;;;;5059353;28;20322;-72
2023/01/12 13:32:43;;;;;;;10.73;3.53;;;23.00;54.30;;;;;;5062005;28;20213;-73
2023/01/12 13:35:52;;;;;;;17.97;5.30;;;23.00;54.20;;;;;;5059867;28;20194;-70
2023/01/12 13:38:42;;;;;;;14.37;4.33;;;23.00;54.70;;;;;;5063857;28;20632;-74
2023/01/12 13:44:02;;;;;;;8.87;2.90;;;23.00;54.60;;;;;;5060797;28;20211;-78
2023/01/12 13:46:35;;;;;;;9.13;3.03;;;22.90;54.60;;;;;;5059885;28;20199;-73
2023/01/12 13:49:03;;;;;;;5.93;2.33;;;22.90;54.40;;;;;;5068632;28;20696;-73
2023/01/12 13:51:38;;;;;;;12.63;4.07;;;22.90;54.40;;;;;;5068046;28;20195;-71
2023/01/12 13:54:10;;;;;;;7.57;2.60;;;22.90;54.80;;;;;;5067700;28;20277;-71